createdAt,value
2022-12-18T00:00:05.101Z,22.3
2022-12-18T00:05:05.091Z,22.1
2022-12-18T00:10:05.081Z,24.9
2022-12-18T00:15:05.145Z,24.6
2022-12-18T00:20:05.146Z,22.7
2022-12-18T00:25:05.093Z,23.6
2022-12-18T00:30:05.097Z,23.6
2022-12-18T00:35:05.098Z,21.6
2022-12-18T00:40:05.173Z,21.9
2022-12-18T00:45:09.169Z,21.8
2022-12-18T00:50:05.088Z,21.2
2022-12-18T00:55:06.537Z,22.2
2022-12-18T01:00:05.102Z,22.2
2022-12-18T01:05:05.095Z,23.7
2022-12-18T01:10:05.080Z,24
2022-12-18T01:15:05.114Z,22.9
2022-12-18T01:20:05.086Z,23.2
2022-12-18T01:25:05.086Z,23.2
2022-12-18T01:30:05.312Z,23.2
2022-12-18T01:35:05.094Z,23.1
2022-12-18T01:40:05.100Z,23
2022-12-18T01:45:05.118Z,23.1
2022-12-18T01:50:05.106Z,23.2
2022-12-18T01:55:05.094Z,23.1
2022-12-18T02:00:05.101Z,23.1
2022-12-18T02:05:05.098Z,22.8
2022-12-18T02:10:05.088Z,22.6
2022-12-18T02:15:05.106Z,22
2022-12-18T02:20:05.086Z,21.5
2022-12-18T02:25:05.094Z,22.2
2022-12-18T02:30:05.096Z,22.2
2022-12-18T02:35:05.092Z,21
2022-12-18T02:40:05.097Z,22.5
2022-12-18T02:45:05.115Z,23.4
2022-12-18T02:50:05.090Z,21.5
2022-12-18T02:55:05.101Z,20.9
2022-12-18T03:00:05.327Z,20.9
2022-12-18T03:05:05.087Z,21.6
2022-12-18T03:10:05.081Z,21.5
2022-12-18T03:15:05.104Z,23
2022-12-18T03:20:05.110Z,22.3
2022-12-18T03:25:05.108Z,21.7
2022-12-18T03:30:05.102Z,21.7
2022-12-18T03:35:05.084Z,21.5
2022-12-18T03:40:05.086Z,20.7
2022-12-18T03:45:05.112Z,23.5
2022-12-18T03:50:08.352Z,20.7
2022-12-18T03:55:05.097Z,20.2
2022-12-18T04:00:05.099Z,20.2
2022-12-18T04:05:05.101Z,22.2
2022-12-18T04:10:05.090Z,22
2022-12-18T04:15:05.101Z,23
2022-12-18T04:20:05.088Z,20.5
2022-12-18T04:25:05.165Z,20.9
2022-12-18T04:30:05.152Z,20.9
2022-12-18T04:35:05.092Z,20.6
2022-12-18T04:40:05.084Z,20.1
2022-12-18T04:45:05.106Z,21.3
2022-12-18T04:50:05.084Z,22.2
2022-12-18T04:55:05.087Z,20.5
2022-12-18T05:00:05.103Z,20.5
2022-12-18T05:05:05.093Z,21.8
2022-12-18T05:10:05.092Z,20.1
2022-12-18T05:15:05.108Z,23.3
2022-12-18T05:20:05.097Z,20.6
2022-12-18T05:25:05.098Z,20.5
2022-12-18T05:30:05.115Z,20.5
2022-12-18T05:35:05.099Z,21.6
2022-12-18T05:40:05.093Z,22
2022-12-18T05:45:05.123Z,21.1
2022-12-18T05:50:05.098Z,22.9
2022-12-18T05:55:05.099Z,23.1
2022-12-18T06:00:05.304Z,23.1
2022-12-18T06:05:05.093Z,21.6
2022-12-18T06:10:05.085Z,21.6
2022-12-18T06:15:05.101Z,21.1
2022-12-18T06:20:05.084Z,21.4
2022-12-18T06:25:05.084Z,21.5
2022-12-18T06:30:05.110Z,21.5
2022-12-18T06:35:05.088Z,20
2022-12-18T06:40:05.113Z,21.1
2022-12-18T06:45:05.101Z,21.2
2022-12-18T06:50:05.080Z,21
2022-12-18T06:55:05.085Z,20.4
2022-12-18T07:00:05.145Z,20.4
2022-12-18T07:05:10.412Z,20.8
2022-12-18T07:10:05.088Z,20
2022-12-18T07:15:05.107Z,19.7
2022-12-18T07:20:05.099Z,20.5
2022-12-18T07:25:05.090Z,20.5
2022-12-18T07:30:05.119Z,20.5
2022-12-18T07:35:05.090Z,21
2022-12-18T07:40:05.083Z,23
2022-12-18T07:45:05.112Z,20.9
2022-12-18T07:50:05.092Z,20.5
2022-12-18T07:55:05.089Z,21.2
2022-12-18T08:00:05.093Z,21.2
2022-12-18T08:05:05.091Z,22
2022-12-18T08:10:05.097Z,21.9
2022-12-18T08:15:05.106Z,22.1
2022-12-18T08:20:05.083Z,21.4
2022-12-18T08:25:05.089Z,21.4
2022-12-18T08:30:05.204Z,21.4
2022-12-18T08:35:05.089Z,24.5
2022-12-18T08:40:05.096Z,21.9
2022-12-18T08:45:05.105Z,22
2022-12-18T08:50:05.097Z,21.3
2022-12-18T08:55:05.106Z,20.8
2022-12-18T09:00:05.105Z,20.8
2022-12-18T09:05:05.091Z,23.3
2022-12-18T09:10:05.077Z,23.8
2022-12-18T09:15:05.107Z,22.3
2022-12-18T09:20:05.080Z,22.4
2022-12-18T09:25:05.167Z,23.5
2022-12-18T09:30:05.103Z,23.5
2022-12-18T09:35:05.091Z,22.4
2022-12-18T09:40:05.085Z,21.9
2022-12-18T09:45:05.171Z,23.1
2022-12-18T09:50:05.094Z,20.4
2022-12-18T09:55:05.093Z,20.2
2022-12-18T10:00:05.103Z,20.2
2022-12-18T10:05:05.100Z,21.8
2022-12-18T10:10:05.096Z,22.9
2022-12-18T10:15:05.105Z,23.3
2022-12-18T10:20:05.100Z,23.9
2022-12-18T10:25:05.099Z,21.7
2022-12-18T10:30:05.121Z,21.7
2022-12-18T10:35:05.093Z,22.7
2022-12-18T10:40:05.087Z,23.7
2022-12-18T10:45:05.104Z,21.4
2022-12-18T10:50:05.079Z,20.8
2022-12-18T10:55:05.084Z,20.3
2022-12-18T11:00:05.096Z,20.3
2022-12-18T11:05:05.089Z,20
2022-12-18T11:10:05.098Z,20.4
2022-12-18T11:15:05.113Z,20.4
2022-12-18T11:20:05.084Z,21.7
2022-12-18T11:30:05.094Z,20.6
2022-12-18T11:35:05.088Z,19.1
2022-12-18T11:40:05.085Z,17.1
2022-12-18T11:45:05.106Z,18.6
2022-12-18T11:50:05.096Z,17.8
2022-12-18T11:55:05.089Z,17
2022-12-18T12:00:05.107Z,17
2022-12-18T12:05:05.092Z,16.4
2022-12-18T12:10:05.086Z,16.1
2022-12-18T12:15:05.143Z,15.5
2022-12-18T12:20:05.093Z,17.5
2022-12-18T12:25:05.084Z,16.2
2022-12-18T12:30:05.097Z,16.2
2022-12-18T12:35:09.586Z,17.5
2022-12-18T12:40:20.799Z,15.6
2022-12-18T12:45:05.114Z,16.8
2022-12-18T12:50:06.201Z,15.9
2022-12-18T12:55:07.088Z,16.4
2022-12-18T13:00:05.094Z,16.4
2022-12-18T13:05:05.085Z,16.4
2022-12-18T13:10:05.139Z,17.1
2022-12-18T13:15:08.813Z,17
2022-12-18T13:20:05.089Z,16.2
2022-12-18T13:25:05.158Z,16.8
2022-12-18T13:30:05.109Z,16.8
2022-12-18T13:35:05.086Z,16.9
2022-12-18T13:40:05.074Z,17.6
2022-12-18T13:45:05.107Z,16
2022-12-18T13:50:05.084Z,16.8
2022-12-18T13:55:05.088Z,18.5
2022-12-18T14:00:05.109Z,18.5
2022-12-18T14:05:05.311Z,17.1
2022-12-18T14:10:41.037Z,19.5
2022-12-18T14:15:05.098Z,20.2
2022-12-18T14:20:05.084Z,20.6
2022-12-18T14:25:05.084Z,19.5
2022-12-18T14:30:05.098Z,19.5
2022-12-18T14:35:05.095Z,19.4
2022-12-18T14:40:10.772Z,20.2
2022-12-18T14:45:13.704Z,19.6
2022-12-18T14:50:05.076Z,19.9
2022-12-18T14:55:05.090Z,21.1
2022-12-18T15:00:05.149Z,21.1
2022-12-18T15:05:08.534Z,19.2
2022-12-18T15:10:05.088Z,18.2
2022-12-18T15:15:05.103Z,20.1
2022-12-18T15:20:05.090Z,19.8
2022-12-18T15:25:05.086Z,19.5
2022-12-18T15:30:05.090Z,19.5
2022-12-18T15:35:05.089Z,21.4
2022-12-18T15:40:05.082Z,18
2022-12-18T15:45:05.099Z,19.7
2022-12-18T15:50:05.075Z,19.7
2022-12-18T15:55:05.120Z,21.1
2022-12-18T16:00:05.106Z,21.1
2022-12-18T16:05:05.084Z,18.9
2022-12-18T16:10:05.223Z,19
2022-12-18T16:15:05.105Z,19.7
2022-12-18T16:20:05.078Z,21.2
2022-12-18T16:25:05.095Z,21.3
2022-12-18T16:30:05.101Z,21.3
2022-12-18T16:35:05.083Z,19.7
2022-12-18T16:40:05.080Z,18.2
2022-12-18T16:45:05.104Z,20.9
2022-12-18T16:50:05.077Z,21.1
2022-12-18T16:55:05.092Z,20.3
2022-12-18T17:00:06.140Z,20.3
2022-12-18T17:05:05.147Z,20.7
2022-12-18T17:10:05.075Z,21.5
2022-12-18T17:15:05.105Z,20.7
2022-12-18T17:20:05.078Z,20.5
2022-12-18T17:25:05.092Z,21.9
2022-12-18T17:30:05.103Z,21.9
2022-12-18T17:35:07.264Z,23.4
2022-12-18T17:40:05.092Z,21.3
2022-12-18T17:45:05.101Z,21.1
2022-12-18T17:50:05.087Z,20.8
2022-12-18T17:55:05.090Z,22.1
2022-12-18T18:00:05.094Z,22.1
2022-12-18T18:05:05.091Z,19.6
2022-12-18T18:10:05.097Z,20.9
2022-12-18T18:15:05.101Z,19.5
2022-12-18T18:20:05.090Z,19.9
2022-12-18T18:25:05.095Z,22.5
2022-12-18T18:30:05.099Z,22.5
2022-12-18T18:35:05.167Z,21
2022-12-18T18:40:05.075Z,20.5
2022-12-18T18:45:05.102Z,23.3
2022-12-18T18:50:05.090Z,20.7
2022-12-18T18:55:13.136Z,21.3
2022-12-18T19:00:05.103Z,21.3
2022-12-18T19:05:05.159Z,22
2022-12-18T19:10:05.545Z,21.3
2022-12-18T19:15:05.098Z,18.7
2022-12-18T19:20:05.086Z,22.1
2022-12-18T19:25:05.081Z,22.5
2022-12-18T19:30:05.114Z,22.5
2022-12-18T19:35:05.102Z,22.8
2022-12-18T19:40:05.091Z,20.9
2022-12-18T19:45:05.123Z,23.8
2022-12-18T19:50:05.201Z,20.1
2022-12-18T19:55:05.092Z,21.6
2022-12-18T20:00:05.119Z,21.6
2022-12-18T20:05:05.095Z,21.8
2022-12-18T20:10:08.821Z,23
2022-12-18T20:15:05.122Z,22.2
2022-12-18T20:20:05.101Z,21.5
2022-12-18T20:25:05.087Z,21.3
2022-12-18T20:30:05.114Z,21.3
2022-12-18T20:35:05.378Z,23.9
2022-12-18T20:40:05.090Z,24
2022-12-18T20:45:05.100Z,21.8
2022-12-18T20:50:05.088Z,22.7
2022-12-18T20:55:05.089Z,21.5
2022-12-18T21:00:05.119Z,21.5
2022-12-18T21:05:05.092Z,22.2
2022-12-18T21:10:05.091Z,22.7
2022-12-18T21:15:05.108Z,22.2
2022-12-18T21:20:05.092Z,21.5
2022-12-18T21:25:05.136Z,22.8
2022-12-18T21:30:05.108Z,22.8
2022-12-18T21:35:05.091Z,22.8
2022-12-18T21:40:05.088Z,23
2022-12-18T21:45:05.101Z,24.2
2022-12-18T21:50:05.082Z,24.1
2022-12-18T21:55:09.286Z,23.9
2022-12-18T22:00:05.105Z,23.9
2022-12-18T22:05:05.089Z,23.4
2022-12-18T22:10:05.090Z,24.8
2022-12-18T22:15:05.117Z,24.1
2022-12-18T22:20:05.101Z,22.6
2022-12-18T22:25:05.089Z,24.2
2022-12-18T22:30:05.124Z,24.2
2022-12-18T22:35:08.225Z,23.4
2022-12-18T22:40:05.084Z,22.6
2022-12-18T22:45:05.115Z,22.7
2022-12-18T22:50:05.083Z,22.2
2022-12-18T22:55:05.154Z,23.9
2022-12-18T23:00:05.103Z,23.9
2022-12-18T23:05:05.087Z,23.7
2022-12-18T23:10:05.093Z,23.6
2022-12-18T23:15:05.099Z,23.3
2022-12-18T23:20:05.085Z,24.9
2022-12-18T23:25:05.104Z,23
2022-12-18T23:30:05.101Z,23
2022-12-18T23:35:05.089Z,24
2022-12-18T23:40:05.088Z,22.7
2022-12-18T23:45:07.708Z,25
2022-12-18T23:50:05.095Z,23.7
2022-12-18T23:55:05.104Z,25.3
